KCGI

Cape Girardeau Regional Airport

Cape Girardeau, Missouri, USA
KCGI 171141Z 1712/1812 21005KT P6SM BKN050 OVC130 FM171800 23010KT 6SM SHRA VCTS SCT030CB BKN200 FM180500 VRB03KT P6SM VCSH FEW030 SCT150 FM180800 VRB02KT 3SM BR SCT030 BKN080 FM181000 00000KT 3/4SM BR SCT008 BKN035
Issued Valid From Valid To
Aug-17 @ 11:41 UTC
(3 hours ago)
Aug-17 @ 12:00 UTC
(3 hours ago)
Aug-18 @ 12:00 UTC
(in 21 hours)
Aug-17 @ 12:00 to Aug-17 @ 18:00
KCGI 171141Z 1712/1812 21005KT P6SM BKN050 OVC130
Wind Visibility Clouds
210° at 5 knots Greater than 6 miles
  • Broken at 5,000' AGL
  • Overcast at 13,000' AGL
From Aug-17 @ 18:00 to Aug-18 @ 05:00
FM171800 23010KT 6SM SHRA VCTS SCT030CB BKN200
Wind Visibility Clouds Conditions
230° at 10 knots 6 miles
  • Scattered at 3,000' AGL
  • Broken at 20,000' AGL
  • Rain
  • Area Thunderstorm
From Aug-18 @ 05:00 to Aug-18 @ 08:00
FM180500 VRB03KT P6SM VCSH FEW030 SCT150
Wind Visibility Clouds
Variable at 3 knots Greater than 6 miles
  • Few at 3,000' AGL
  • Scattered at 15,000' AGL
From Aug-18 @ 08:00 to Aug-18 @ 10:00
FM180800 VRB02KT 3SM BR SCT030 BKN080
Wind Visibility Clouds Conditions
Variable at 2 knots 3 miles
  • Scattered at 3,000' AGL
  • Broken at 8,000' AGL
  • Mist
From Aug-18 @ 10:00 to Aug-18 @ 12:00
FM181000 00000KT 3/4SM BR SCT008 BKN035
Visibility Clouds Conditions
3/4 miles
  • Scattered at 800' AGL
  • Broken at 3,500' AGL
  • Mist
KCGI 171141Z 1712/1812 21005KT P6SM BKN050 OVC130 FM171800 23010KT 6SM SHRA VCTS SCT030CB BKN200 FM180500 VRB03KT P6SM VCSH FEW030 SCT150 FM180800 VRB02KT 3SM BR SCT030 BKN080 FM181000 00000KT 3/4SM BR SCT008 BKN035
Issued Aug-17 @ 11:41 UTC
(3 hours ago)
Valid From Aug-17 @ 12:00 UTC
(3 hours ago)
Valid To Aug-18 @ 12:00 UTC
(in 21 hours)
Aug-17 @ 12:00 - Aug-17 @ 18:00
Wind Visibility
210° at 5 knots Greater than 6 miles
Clouds
  • Broken at 5,000' AGL
  • Overcast at 13,000' AGL
From Aug-17 @ 18:00 - Aug-18 @ 05:00
Wind Visibility
230° at 10 knots 6 miles
Clouds
  • Scattered at 3,000' AGL
  • Broken at 20,000' AGL
Conditions
  • Rain
  • Area Thunderstorm
From Aug-18 @ 05:00 - Aug-18 @ 08:00
Wind Visibility
Variable at 3 knots Greater than 6 miles
Clouds
  • Few at 3,000' AGL
  • Scattered at 15,000' AGL
From Aug-18 @ 08:00 - Aug-18 @ 10:00
Wind Visibility
Variable at 2 knots 3 miles
Clouds
  • Scattered at 3,000' AGL
  • Broken at 8,000' AGL
Conditions
  • Mist
From Aug-18 @ 10:00 - Aug-18 @ 12:00
Clouds
  • Scattered at 800' AGL
  • Broken at 3,500' AGL
Conditions
  • Mist